createdAt,value
2022-11-14T00:01:24.686Z,84.45
2022-11-14T00:03:52.947Z,85.13
2022-11-14T00:06:21.680Z,86.02
2022-11-14T00:08:51.307Z,87.38
2022-11-14T00:11:20.487Z,86.04
2022-11-14T00:13:48.685Z,83.66
2022-11-14T00:16:17.010Z,82.96
2022-11-14T00:18:45.178Z,84.16
2022-11-14T00:21:13.409Z,86.25
2022-11-14T00:23:41.565Z,84.19
2022-11-14T00:26:11.171Z,83.98
2022-11-14T00:28:39.439Z,81.95
2022-11-14T00:31:08.222Z,81.01
2022-11-14T00:33:36.491Z,80.15
2022-11-14T00:36:04.965Z,80.52
2022-11-14T00:38:33.153Z,80.90
2022-11-14T00:41:03.420Z,79.92
2022-11-14T00:43:33.235Z,80.32
2022-11-14T00:46:01.639Z,80.29
2022-11-14T00:48:30.187Z,80.86
2022-11-14T00:50:58.572Z,80.19
2022-11-14T00:53:26.780Z,82.23
2022-11-14T00:55:55.008Z,88.58
2022-11-14T00:58:23.268Z,90.37
2022-11-14T01:00:52.886Z,87.32
2022-11-14T01:03:21.401Z,86.61
2022-11-14T01:05:51.712Z,84.86
2022-11-14T01:08:20.739Z,83.57
2022-11-14T01:10:51.021Z,83.01
2022-11-14T01:13:20.120Z,82.59
2022-11-14T01:15:50.349Z,82.28
2022-11-14T01:18:21.823Z,82.14
2022-11-14T01:20:50.653Z,80.71
2022-11-14T01:23:19.270Z,81.76
2022-11-14T01:25:47.482Z,83.08
2022-11-14T01:28:18.256Z,87.80
2022-11-14T01:30:47.157Z,87.87
2022-11-14T01:33:15.356Z,94.15
2022-11-14T01:35:44.981Z,97.78
2022-11-14T01:38:15.409Z,94.76
2022-11-14T01:40:45.092Z,92.18
2022-11-14T01:43:32.329Z,90.89
2022-11-14T01:46:03.300Z,88.46
2022-11-14T01:48:36.817Z,88.18
2022-11-14T01:51:17.386Z,86.29
2022-11-14T01:53:47.887Z,84.40
2022-11-14T01:56:20.917Z,83.94
2022-11-14T01:58:53.532Z,83.53
2022-11-14T02:01:22.110Z,86.12
2022-11-14T02:03:54.273Z,85.97
2022-11-14T02:06:26.993Z,86.73
2022-11-14T02:08:56.023Z,86.83
2022-11-14T02:11:24.314Z,86.56
2022-11-14T02:13:52.862Z,86.15
2022-11-14T02:16:21.588Z,86.90
2022-11-14T02:18:49.819Z,88.04
2022-11-14T02:21:19.535Z,90.60
2022-11-14T02:23:47.791Z,88.99
2022-11-14T02:26:19.284Z,87.08
2022-11-14T02:28:47.895Z,86.53
2022-11-14T02:31:16.828Z,84.85
2022-11-14T02:33:45.334Z,83.80
2022-11-14T02:36:13.619Z,83.63
2022-11-14T02:38:43.260Z,83.70
2022-11-14T02:41:11.471Z,85.74
2022-11-14T02:43:39.723Z,87.07
2022-11-14T02:46:07.925Z,87.85
2022-11-14T02:48:36.211Z,87.37
2022-11-14T02:51:04.483Z,86.43
2022-11-14T02:53:32.733Z,94.76
2022-11-14T02:56:02.538Z,100.00
2022-11-14T02:58:30.974Z,100.00
2022-11-14T03:01:19.662Z,100.00
2022-11-14T03:03:47.758Z,96.71
2022-11-14T03:06:16.541Z,92.42
2022-11-14T03:08:44.685Z,89.45
2022-11-14T03:11:14.329Z,88.66
2022-11-14T03:13:42.598Z,88.46
2022-11-14T03:16:13.282Z,92.95
2022-11-14T03:18:41.609Z,99.13
2022-11-14T03:21:11.749Z,100.00
2022-11-14T03:23:40.037Z,98.38
2022-11-14T03:26:10.589Z,94.42
2022-11-14T03:28:40.879Z,93.09
2022-11-14T03:31:11.762Z,89.94
2022-11-14T03:33:40.203Z,87.67
2022-11-14T03:36:09.234Z,85.92
2022-11-14T03:38:38.170Z,85.94
2022-11-14T03:41:06.763Z,85.79
2022-11-14T03:43:35.799Z,85.62
2022-11-14T03:46:05.719Z,87.03
2022-11-14T03:48:33.966Z,86.90
2022-11-14T03:51:02.216Z,86.10
2022-11-14T03:53:30.401Z,91.80
2022-11-14T03:55:58.531Z,99.31
2022-11-14T03:58:27.024Z,98.94
2022-11-14T04:00:56.630Z,99.41
2022-11-14T04:03:26.872Z,97.75
2022-11-14T04:05:55.111Z,97.85
2022-11-14T04:08:23.330Z,96.98
2022-11-14T04:10:51.670Z,94.52
2022-11-14T04:13:19.927Z,89.08
2022-11-14T04:15:48.362Z,86.41
2022-11-14T04:18:16.643Z,86.65
2022-11-14T04:20:46.250Z,86.68
2022-11-14T04:23:14.466Z,85.89
2022-11-14T04:25:44.496Z,85.55
2022-11-14T04:28:12.921Z,84.97
2022-11-14T04:30:41.215Z,84.57
2022-11-14T04:33:09.531Z,83.82
2022-11-14T04:35:37.844Z,83.21
2022-11-14T04:38:07.644Z,82.54
2022-11-14T04:40:35.921Z,81.13
2022-11-14T04:43:04.284Z,80.96
2022-11-14T04:45:32.617Z,81.14
2022-11-14T04:48:00.925Z,81.52
2022-11-14T04:50:29.160Z,81.69
2022-11-14T04:52:57.493Z,82.11
2022-11-14T04:55:27.138Z,81.27
2022-11-14T04:57:56.369Z,83.01
2022-11-14T05:00:25.812Z,84.69
2022-11-14T05:02:54.041Z,86.37
2022-11-14T05:05:22.355Z,88.88
2022-11-14T05:07:50.623Z,88.30
2022-11-14T05:10:18.984Z,87.57
2022-11-14T05:12:48.652Z,88.01
2022-11-14T05:15:17.053Z,90.14
2022-11-14T05:17:45.331Z,90.54
2022-11-14T05:20:14.181Z,89.39
2022-11-14T05:22:42.469Z,87.26
2022-11-14T05:25:11.783Z,88.65
2022-11-14T05:27:40.021Z,86.68
2022-11-14T05:30:11.406Z,85.02
2022-11-14T05:32:39.599Z,84.55
2022-11-14T05:35:09.364Z,82.67
2022-11-14T05:37:37.707Z,82.14
2022-11-14T05:40:07.213Z,82.78
2022-11-14T05:42:35.415Z,83.71
2022-11-14T05:45:03.701Z,83.41
2022-11-14T05:47:33.321Z,81.31
2022-11-14T05:50:01.541Z,80.08
2022-11-14T05:52:29.743Z,80.81
2022-11-14T05:54:58.066Z,81.62
2022-11-14T05:57:26.270Z,82.08
2022-11-14T05:59:54.486Z,82.63
2022-11-14T06:02:22.836Z,82.38
2022-11-14T06:04:52.560Z,83.49
2022-11-14T06:07:20.964Z,83.04
2022-11-14T06:09:49.216Z,83.08
2022-11-14T06:12:19.402Z,79.61
2022-11-14T06:14:47.623Z,76.85
2022-11-14T06:17:15.843Z,74.53
2022-11-14T06:19:44.069Z,72.99
2022-11-14T06:22:13.730Z,71.91
2022-11-14T06:24:41.932Z,72.02
2022-11-14T06:27:10.238Z,71.45
2022-11-14T06:29:38.500Z,71.63
2022-11-14T06:32:06.831Z,71.64
2022-11-14T06:34:35.027Z,72.71
2022-11-14T06:37:03.205Z,72.65
2022-11-14T06:39:32.793Z,73.32
2022-11-14T06:42:00.950Z,73.15
2022-11-14T06:44:30.964Z,72.90
2022-11-14T06:46:59.398Z,69.45
2022-11-14T06:49:28.021Z,69.59
2022-11-14T06:51:56.323Z,70.61
2022-11-14T06:54:24.571Z,72.78
2022-11-14T06:56:54.260Z,74.48
2022-11-14T06:59:22.507Z,75.68
2022-11-14T07:01:50.732Z,74.69
2022-11-14T07:04:19.232Z,72.83
2022-11-14T07:06:47.523Z,72.24
2022-11-14T07:09:15.923Z,73.19
2022-11-14T07:11:46.943Z,74.06
2022-11-14T07:14:16.690Z,73.17
2022-11-14T07:16:44.883Z,72.41
2022-11-14T07:19:13.318Z,71.29
2022-11-14T07:21:41.609Z,69.98
2022-11-14T07:24:09.836Z,70.72
2022-11-14T07:26:38.089Z,70.94
2022-11-14T07:29:06.294Z,70.75
2022-11-14T07:31:35.955Z,69.39
2022-11-14T07:34:06.100Z,68.92
2022-11-14T07:36:34.373Z,68.08
2022-11-14T07:39:02.642Z,65.92
2022-11-14T07:41:30.830Z,63.06
2022-11-14T07:43:59.245Z,59.35
2022-11-14T07:46:27.465Z,59.40
2022-11-14T07:48:57.060Z,59.12
2022-11-14T07:51:25.290Z,58.77
2022-11-14T07:53:54.757Z,57.98
2022-11-14T07:56:24.194Z,57.63
2022-11-14T07:58:52.478Z,58.75
2022-11-14T08:01:20.840Z,56.23
2022-11-14T08:03:49.225Z,55.15
2022-11-14T08:06:18.971Z,55.03
2022-11-14T08:08:47.202Z,53.70
2022-11-14T08:11:31.815Z,54.31
2022-11-14T08:14:03.343Z,51.03
2022-11-14T08:16:31.567Z,50.66
2022-11-14T08:18:59.879Z,49.74
2022-11-14T08:21:29.512Z,49.50
2022-11-14T08:23:57.773Z,49.02
2022-11-14T08:26:28.967Z,50.22
2022-11-14T08:29:01.274Z,48.83
2022-11-14T08:31:29.612Z,47.97
2022-11-14T08:33:57.789Z,45.92
2022-11-14T08:36:25.960Z,44.12
2022-11-14T08:39:01.476Z,46.10
2022-11-14T08:41:30.385Z,44.78
2022-11-14T08:43:58.680Z,41.87
2022-11-14T08:46:26.906Z,40.67
2022-11-14T08:48:55.190Z,39.34
2022-11-14T08:51:23.459Z,40.25
2022-11-14T08:53:52.612Z,40.15
2022-11-14T08:56:22.227Z,41.06
2022-11-14T08:58:50.606Z,40.91
2022-11-14T09:01:18.808Z,44.47
2022-11-14T09:03:47.168Z,41.14
2022-11-14T09:06:15.506Z,41.31
2022-11-14T09:08:43.745Z,39.11
2022-11-14T09:11:14.364Z,38.09
2022-11-14T09:13:47.762Z,39.14
2022-11-14T09:16:15.943Z,39.35
2022-11-14T09:18:44.133Z,38.69
2022-11-14T09:21:12.962Z,39.74
2022-11-14T09:23:41.888Z,38.19
2022-11-14T09:26:11.234Z,38.92
2022-11-14T09:28:39.605Z,39.06
2022-11-14T09:31:12.329Z,38.86
2022-11-14T09:33:40.812Z,37.49
2022-11-14T09:36:12.426Z,36.70
2022-11-14T09:38:40.693Z,37.22
2022-11-14T09:41:24.560Z,37.10
2022-11-14T09:44:31.716Z,36.62
2022-11-14T09:47:04.156Z,36.35
2022-11-14T09:49:37.389Z,36.42
2022-11-14T09:52:16.340Z,36.49
2022-11-14T09:54:50.218Z,36.75
2022-11-14T09:57:21.588Z,35.97
2022-11-14T09:59:51.042Z,35.19
2022-11-14T10:02:34.598Z,36.21
2022-11-14T10:05:18.393Z,36.09
2022-11-14T10:08:01.979Z,34.38
2022-11-14T10:10:46.336Z,35.25
2022-11-14T10:13:27.294Z,35.85
2022-11-14T10:16:02.184Z,35.58
2022-11-14T10:18:44.304Z,34.95
2022-11-14T10:21:28.951Z,36.95
2022-11-14T10:24:04.173Z,36.43
2022-11-14T10:26:37.643Z,37.46
2022-11-14T10:29:28.652Z,35.68
2022-11-14T10:32:06.365Z,35.06
2022-11-14T10:34:41.919Z,37.02
2022-11-14T10:37:20.325Z,34.89
2022-11-14T10:39:53.093Z,36.11
2022-11-14T10:42:26.753Z,34.41
2022-11-14T10:45:03.376Z,33.37
2022-11-14T10:47:41.193Z,32.56
2022-11-14T10:50:20.232Z,33.87
2022-11-14T10:52:49.834Z,32.77
2022-11-14T10:55:32.039Z,33.09
2022-11-14T10:58:12.217Z,32.75
2022-11-14T11:00:40.633Z,33.35
2022-11-14T11:03:09.299Z,33.29
2022-11-14T11:05:48.657Z,32.85
2022-11-14T11:08:43.729Z,33.60
2022-11-14T11:11:32.688Z,32.74
2022-11-14T11:14:02.612Z,31.65
2022-11-14T11:16:30.924Z,32.45
2022-11-14T11:19:16.410Z,32.69
2022-11-14T11:21:54.257Z,30.00
2022-11-14T11:24:33.299Z,28.68
2022-11-14T11:27:24.089Z,28.14
2022-11-14T11:30:19.072Z,31.10
2022-11-14T11:32:47.355Z,32.50
2022-11-14T11:35:17.479Z,30.72
2022-11-14T11:37:54.817Z,30.72
2022-11-14T11:40:26.707Z,29.43
2022-11-14T11:45:52.323Z,30.73
2022-11-14T11:48:22.787Z,31.40
2022-11-14T11:50:51.556Z,30.44
2022-11-14T11:53:26.738Z,28.66
2022-11-14T11:56:00.275Z,29.22
2022-11-14T11:58:34.244Z,28.85
2022-11-14T12:01:02.667Z,30.31
2022-11-14T12:03:31.156Z,29.48
2022-11-14T12:06:12.315Z,29.65
2022-11-14T12:08:53.388Z,28.84
2022-11-14T12:11:26.431Z,27.60
2022-11-14T12:14:32.695Z,29.09
2022-11-14T12:17:17.360Z,27.44
2022-11-14T12:20:14.112Z,26.90
2022-11-14T12:23:16.238Z,27.09
2022-11-14T12:26:05.658Z,27.72
2022-11-14T12:28:53.895Z,27.63
2022-11-14T12:31:23.512Z,27.53
2022-11-14T12:33:57.430Z,28.39
2022-11-14T12:36:30.625Z,27.89
2022-11-14T12:39:00.486Z,26.41
2022-11-14T12:41:33.776Z,26.87
2022-11-14T12:44:33.083Z,26.21
2022-11-14T12:47:19.181Z,25.75
2022-11-14T12:50:06.518Z,26.62
2022-11-14T12:52:49.894Z,26.89
2022-11-14T12:55:57.078Z,27.48
2022-11-14T12:58:48.179Z,27.96
2022-11-14T13:01:37.988Z,27.58
2022-11-14T13:04:19.464Z,27.69
2022-11-14T13:06:59.648Z,29.00
2022-11-14T13:09:34.787Z,28.45
2022-11-14T13:12:52.540Z,28.31
2022-11-14T13:15:51.248Z,28.46
2022-11-14T13:18:42.975Z,27.72
2022-11-14T13:21:45.109Z,27.77
2022-11-14T13:24:16.340Z,27.58
2022-11-14T13:26:53.174Z,28.34
2022-11-14T13:29:49.979Z,28.53
2022-11-14T13:33:07.539Z,28.21
2022-11-14T13:36:02.205Z,29.39
2022-11-14T13:39:02.474Z,30.68
2022-11-14T13:42:00.227Z,32.96
2022-11-14T13:45:06.629Z,35.73
2022-11-14T13:47:52.285Z,35.78
2022-11-14T13:50:26.618Z,36.38
2022-11-14T13:52:56.710Z,37.75
2022-11-14T13:55:32.956Z,38.97
2022-11-14T13:58:16.018Z,40.04
2022-11-14T14:01:08.051Z,41.48
2022-11-14T14:03:52.282Z,41.55
2022-11-14T14:06:39.891Z,43.13
2022-11-14T14:09:28.506Z,44.09
2022-11-14T14:12:46.491Z,44.51
2022-11-14T14:15:24.262Z,45.23
2022-11-14T14:18:06.671Z,44.56
2022-11-14T14:20:45.557Z,46.68
2022-11-14T14:23:35.904Z,47.89
2022-11-14T14:26:16.422Z,49.38
2022-11-14T14:28:57.751Z,49.47
2022-11-14T14:31:26.135Z,51.42
2022-11-14T14:33:54.444Z,51.97
2022-11-14T14:36:25.782Z,50.98
2022-11-14T14:39:17.248Z,51.73
2022-11-14T14:41:47.985Z,51.16
2022-11-14T14:44:26.907Z,52.88
2022-11-14T14:46:55.693Z,53.33
2022-11-14T14:49:27.607Z,53.19
2022-11-14T14:51:58.604Z,53.73
2022-11-14T14:54:29.890Z,53.85
2022-11-14T14:57:02.651Z,55.26
2022-11-14T14:59:32.353Z,55.19
2022-11-14T15:02:01.471Z,55.59
2022-11-14T15:04:30.423Z,55.43
2022-11-14T15:06:58.824Z,55.56
2022-11-14T15:09:29.819Z,55.80
2022-11-14T15:12:01.573Z,56.42
2022-11-14T15:14:32.479Z,55.03
2022-11-14T15:17:01.599Z,55.10
2022-11-14T15:19:41.031Z,53.28
2022-11-14T15:22:25.419Z,52.14
2022-11-14T15:25:21.516Z,52.46
2022-11-14T15:27:54.616Z,51.66
2022-11-14T15:30:25.919Z,53.32
2022-11-14T15:32:55.656Z,55.52
2022-11-14T15:35:32.831Z,55.15
2022-11-14T15:38:22.140Z,55.44
2022-11-14T15:41:19.029Z,56.24
2022-11-14T15:43:55.590Z,56.48
2022-11-14T15:46:43.211Z,56.83
2022-11-14T15:49:20.450Z,58.58
2022-11-14T15:51:51.775Z,58.63
2022-11-14T15:54:25.805Z,59.93
2022-11-14T15:56:55.106Z,60.05
2022-11-14T15:59:25.615Z,60.20
2022-11-14T16:01:59.226Z,60.23
2022-11-14T16:04:32.089Z,60.58
2022-11-14T16:07:00.422Z,59.88
2022-11-14T16:09:28.700Z,60.79
2022-11-14T16:11:57.026Z,60.49
2022-11-14T16:14:26.649Z,58.69
2022-11-14T16:16:55.290Z,60.09
2022-11-14T16:19:23.601Z,59.99
2022-11-14T16:21:51.851Z,60.03
2022-11-14T16:24:22.172Z,59.81
2022-11-14T16:26:51.225Z,59.81
2022-11-14T16:29:19.955Z,60.84
2022-11-14T16:31:51.998Z,60.68
2022-11-14T16:34:22.443Z,59.93
2022-11-14T16:36:51.810Z,59.46
2022-11-14T16:39:21.116Z,60.49
2022-11-14T16:41:49.547Z,60.08
2022-11-14T16:44:18.772Z,59.69
2022-11-14T16:46:47.405Z,58.80
2022-11-14T16:49:20.100Z,60.38
2022-11-14T16:51:50.850Z,61.97
2022-11-14T16:54:21.349Z,63.62
2022-11-14T16:56:49.731Z,64.55
2022-11-14T16:59:18.060Z,64.45
2022-11-14T17:01:48.321Z,64.93
2022-11-14T17:04:18.112Z,64.36
2022-11-14T17:06:46.754Z,65.27
2022-11-14T17:09:15.509Z,65.15
2022-11-14T17:11:44.760Z,65.08
2022-11-14T17:14:13.278Z,65.80
2022-11-14T17:16:41.618Z,64.47
2022-11-14T17:19:09.844Z,66.20
2022-11-14T17:21:39.571Z,66.11
2022-11-14T17:24:08.213Z,66.08
2022-11-14T17:26:37.852Z,65.01
2022-11-14T17:29:06.506Z,63.73
2022-11-14T17:31:38.400Z,63.24
2022-11-14T17:34:09.969Z,62.51
2022-11-14T17:36:39.924Z,61.29
2022-11-14T17:39:08.627Z,61.33
2022-11-14T17:41:37.013Z,63.00
2022-11-14T17:44:05.777Z,64.33
2022-11-14T17:46:34.666Z,64.63
2022-11-14T17:49:03.251Z,63.25
2022-11-14T17:51:32.012Z,63.65
2022-11-14T17:54:01.736Z,62.63
2022-11-14T17:56:29.980Z,63.25
2022-11-14T17:58:58.270Z,64.14
2022-11-14T18:01:27.062Z,63.13
2022-11-14T18:03:55.288Z,63.65
2022-11-14T18:06:24.513Z,65.35
2022-11-14T18:08:52.883Z,66.18
2022-11-14T18:11:22.592Z,66.32
2022-11-14T18:13:55.794Z,65.04
2022-11-14T18:16:26.480Z,64.53
2022-11-14T18:19:03.368Z,64.21
2022-11-14T18:21:32.038Z,64.42
2022-11-14T18:24:01.365Z,63.06
2022-11-14T18:26:31.038Z,63.43
2022-11-14T18:29:00.959Z,63.38
2022-11-14T18:31:30.021Z,62.83
2022-11-14T18:33:58.828Z,62.80
2022-11-14T18:36:27.749Z,62.45
2022-11-14T18:39:03.179Z,63.30
2022-11-14T18:41:33.772Z,66.32
2022-11-14T18:44:03.884Z,68.15
2022-11-14T18:46:37.198Z,65.72
2022-11-14T18:49:05.765Z,66.32
2022-11-14T18:51:42.065Z,67.52
2022-11-14T18:54:13.378Z,64.33
2022-11-14T18:56:44.587Z,64.70
2022-11-14T18:59:13.150Z,64.03
2022-11-14T19:01:41.982Z,63.50
2022-11-14T19:04:12.144Z,63.42
2022-11-14T19:06:43.807Z,63.59
2022-11-14T19:09:16.172Z,63.84
2022-11-14T19:12:03.275Z,62.89
2022-11-14T19:14:31.704Z,63.98
2022-11-14T19:17:00.894Z,63.13
2022-11-14T19:19:29.951Z,62.73
2022-11-14T19:21:58.530Z,62.72
2022-11-14T19:24:27.167Z,63.20
2022-11-14T19:26:57.931Z,65.04
2022-11-14T19:29:26.471Z,65.93
2022-11-14T19:31:55.203Z,65.61
2022-11-14T19:34:24.451Z,67.29
2022-11-14T19:36:59.847Z,65.89
2022-11-14T19:39:29.147Z,65.46
2022-11-14T19:41:58.971Z,63.48
2022-11-14T19:44:27.664Z,63.86
2022-11-14T19:46:56.317Z,63.47
2022-11-14T19:49:24.622Z,63.20
2022-11-14T19:51:53.409Z,63.28
2022-11-14T19:54:21.782Z,64.29
2022-11-14T19:56:50.029Z,63.91
2022-11-14T19:59:24.130Z,63.64
2022-11-14T20:01:55.524Z,64.18
2022-11-14T20:04:24.272Z,64.02
2022-11-14T20:06:52.645Z,63.64
2022-11-14T20:09:20.968Z,64.43
2022-11-14T20:11:49.291Z,65.17
2022-11-14T20:14:17.700Z,63.81
2022-11-14T20:16:47.428Z,64.75
2022-11-14T20:19:16.290Z,64.40
2022-11-14T20:21:44.542Z,64.38
2022-11-14T20:24:15.567Z,64.88
2022-11-14T20:26:43.758Z,65.24
2022-11-14T20:29:12.124Z,66.41
2022-11-14T20:31:40.973Z,65.79
2022-11-14T20:34:12.080Z,66.28
2022-11-14T20:37:09.408Z,66.46
2022-11-14T20:39:29.237Z,66.52
2022-11-14T20:41:57.873Z,66.22
2022-11-14T20:44:26.143Z,66.72
2022-11-14T20:46:55.680Z,67.66
2022-11-14T20:49:25.495Z,67.09
2022-11-14T20:51:53.830Z,68.29
2022-11-14T20:54:22.101Z,67.71
2022-11-14T20:56:50.389Z,67.91
2022-11-14T20:59:18.640Z,68.27
2022-11-14T21:01:46.954Z,69.17
2022-11-14T21:04:15.403Z,69.16
2022-11-14T21:06:45.191Z,68.51
2022-11-14T21:09:13.403Z,68.94
2022-11-14T21:11:41.648Z,69.12
2022-11-14T21:14:12.606Z,69.61
2022-11-14T21:16:41.537Z,71.13
2022-11-14T21:19:09.741Z,71.33
2022-11-14T21:21:39.037Z,72.21
2022-11-14T21:24:09.272Z,72.14
2022-11-14T21:26:40.311Z,71.58
2022-11-14T21:29:11.192Z,71.04
2022-11-14T21:31:41.296Z,70.77
2022-11-14T21:34:13.743Z,71.96
2022-11-14T21:36:45.553Z,71.17
2022-11-14T21:39:17.571Z,71.44
2022-11-14T21:41:48.554Z,71.44
2022-11-14T21:44:19.133Z,71.66
2022-11-14T21:46:48.852Z,70.89
2022-11-14T21:49:17.461Z,71.70
2022-11-14T21:51:45.730Z,71.08
2022-11-14T21:54:18.550Z,71.66
2022-11-14T21:56:46.808Z,71.53
2022-11-14T21:59:21.427Z,71.06
2022-11-14T22:02:10.493Z,70.31
2022-11-14T22:04:39.170Z,71.44
2022-11-14T22:07:09.515Z,71.17
2022-11-14T22:09:45.158Z,71.58
2022-11-14T22:12:13.879Z,71.99
2022-11-14T22:14:42.074Z,72.15
2022-11-14T22:17:10.384Z,71.82
2022-11-14T22:19:38.686Z,72.36
2022-11-14T22:22:06.943Z,72.04
2022-11-14T22:24:35.134Z,72.34
2022-11-14T22:27:05.012Z,74.52
2022-11-14T22:29:33.286Z,73.75
2022-11-14T22:32:01.620Z,73.68
2022-11-14T22:34:29.860Z,73.46
2022-11-14T22:36:58.122Z,73.35
2022-11-14T22:39:26.342Z,73.03
2022-11-14T22:41:54.594Z,73.16
2022-11-14T22:44:24.340Z,73.16
2022-11-14T22:46:52.570Z,73.81
2022-11-14T22:49:21.309Z,73.95
2022-11-14T22:51:49.752Z,73.89
2022-11-14T22:54:18.806Z,74.43
2022-11-14T22:56:47.023Z,74.66
2022-11-14T22:59:15.265Z,76.58
2022-11-14T23:01:44.863Z,77.13
2022-11-14T23:04:14.044Z,75.91
2022-11-14T23:06:42.430Z,75.10
2022-11-14T23:09:10.864Z,75.19
2022-11-14T23:11:39.147Z,74.66
2022-11-14T23:14:07.403Z,74.71
2022-11-14T23:16:36.017Z,74.33
2022-11-14T23:19:05.809Z,73.37
2022-11-14T23:21:35.532Z,72.58
2022-11-14T23:24:06.875Z,73.54
2022-11-14T23:26:35.467Z,74.30
2022-11-14T23:29:04.382Z,74.90
2022-11-14T23:31:32.615Z,75.47
2022-11-14T23:34:00.901Z,75.10
2022-11-14T23:36:30.636Z,73.49
2022-11-14T23:38:58.889Z,72.65
2022-11-14T23:41:27.177Z,72.30
2022-11-14T23:43:55.460Z,72.98
2022-11-14T23:46:23.783Z,74.25
2022-11-14T23:48:53.493Z,73.60
2022-11-14T23:51:21.878Z,73.40
2022-11-14T23:53:52.081Z,72.40
2022-11-14T23:56:20.324Z,72.68
2022-11-14T23:58:48.651Z,73.01
